createdAt,value
2018-11-13T00:00:35.333Z,9.60
2018-11-13T00:01:39.861Z,9.60
2018-11-13T00:02:43.713Z,9.60
2018-11-13T00:03:48.241Z,9.60
2018-11-13T00:04:52.521Z,9.60
2018-11-13T00:05:56.210Z,9.50
2018-11-13T00:06:59.773Z,9.50
2018-11-13T00:08:04.388Z,9.50
2018-11-13T00:09:08.847Z,9.60
2018-11-13T00:10:13.104Z,9.60
2018-11-13T00:11:16.769Z,9.50
2018-11-13T00:12:21.022Z,9.60
2018-11-13T00:13:25.277Z,9.60
2018-11-13T00:14:28.790Z,9.70
2018-11-13T00:15:33.256Z,9.70
2018-11-13T00:16:36.849Z,9.60
2018-11-13T00:17:40.406Z,9.60
2018-11-13T00:18:44.540Z,9.60
2018-11-13T00:19:48.260Z,9.70
2018-11-13T00:20:51.752Z,9.70
2018-11-13T00:21:55.346Z,9.60
2018-11-13T00:22:58.940Z,9.60
2018-11-13T00:24:02.581Z,9.60
2018-11-13T00:25:08.115Z,9.60
2018-11-13T00:26:12.503Z,9.70
2018-11-13T00:27:16.200Z,9.70
2018-11-13T00:28:19.750Z,9.70
2018-11-13T00:29:23.455Z,9.70
2018-11-13T00:30:27.019Z,9.70
2018-11-13T00:31:30.893Z,9.60
2018-11-13T00:32:34.511Z,9.70
2018-11-13T00:33:38.475Z,9.70
2018-11-13T00:34:42.043Z,9.70
2018-11-13T00:35:45.657Z,9.60
2018-11-13T00:36:49.327Z,9.60
2018-11-13T00:37:53.232Z,9.60
2018-11-13T00:38:57.437Z,9.60
2018-11-13T00:40:01.237Z,9.60
2018-11-13T00:41:05.526Z,9.60
2018-11-13T00:42:09.825Z,9.60
2018-11-13T00:43:13.560Z,9.60
2018-11-13T00:44:17.694Z,9.60
2018-11-13T00:45:21.388Z,9.60
2018-11-13T00:46:25.973Z,9.50
2018-11-13T00:47:29.537Z,9.60
2018-11-13T00:48:33.039Z,9.60
2018-11-13T00:49:36.605Z,9.60
2018-11-13T00:50:40.252Z,9.60
2018-11-13T00:51:43.860Z,9.60
2018-11-13T00:52:47.906Z,9.60
2018-11-13T00:53:51.436Z,9.60
2018-11-13T00:54:55.908Z,9.60
2018-11-13T00:55:59.458Z,9.60
2018-11-13T00:57:03.135Z,9.60
2018-11-13T00:58:06.969Z,9.60
2018-11-13T00:59:10.626Z,9.60
2018-11-13T01:00:17.105Z,9.60
2018-11-13T01:01:20.781Z,9.60
2018-11-13T01:02:24.460Z,9.60
2018-11-13T01:03:27.947Z,9.50
2018-11-13T01:04:32.107Z,9.50
2018-11-13T01:05:36.433Z,9.50
2018-11-13T01:06:40.000Z,9.40
2018-11-13T01:07:44.521Z,9.40
2018-11-13T01:08:47.998Z,9.40
2018-11-13T01:09:52.076Z,9.30
2018-11-13T01:10:55.602Z,9.30
2018-11-13T01:12:00.057Z,9.30
2018-11-13T01:13:03.360Z,9.30
2018-11-13T01:14:07.866Z,9.30
2018-11-13T01:15:13.091Z,9.20
2018-11-13T01:16:16.703Z,9.30
2018-11-13T01:17:20.506Z,9.20
2018-11-13T01:18:24.028Z,9.20
2018-11-13T01:19:27.481Z,9.20
2018-11-13T01:20:31.270Z,9.20
2018-11-13T01:21:34.831Z,9.20
2018-11-13T01:22:38.444Z,9.10
2018-11-13T01:23:42.117Z,9.10
2018-11-13T01:24:45.676Z,9.10
2018-11-13T01:25:49.347Z,9.10
2018-11-13T01:26:52.975Z,9.10
2018-11-13T01:27:56.484Z,9.10
2018-11-13T01:29:00.260Z,9.20
2018-11-13T01:30:04.557Z,9.20
2018-11-13T01:31:08.185Z,9.30
2018-11-13T01:32:11.738Z,9.40
2018-11-13T01:33:15.513Z,9.40
2018-11-13T01:34:19.160Z,9.40
2018-11-13T01:35:22.845Z,9.40
2018-11-13T01:36:26.395Z,9.50
2018-11-13T01:37:31.476Z,9.50
2018-11-13T01:38:36.484Z,9.50
2018-11-13T01:39:40.013Z,9.60
2018-11-13T01:40:43.550Z,9.50
2018-11-13T01:41:47.196Z,9.40
2018-11-13T01:42:51.566Z,9.40
2018-11-13T01:43:55.304Z,9.30
2018-11-13T01:44:58.888Z,9.40
2018-11-13T01:46:02.665Z,9.40
2018-11-13T01:47:06.738Z,9.40
2018-11-13T01:48:10.813Z,9.40
2018-11-13T01:49:14.902Z,9.40
2018-11-13T01:50:21.905Z,9.50
2018-11-13T01:51:25.572Z,9.50
2018-11-13T01:52:29.527Z,9.50
2018-11-13T01:53:33.021Z,9.50
2018-11-13T01:54:36.947Z,9.40
2018-11-13T01:55:40.505Z,9.30
2018-11-13T01:56:43.993Z,9.30
2018-11-13T01:57:47.494Z,9.30
2018-11-13T01:58:51.847Z,9.20
2018-11-13T01:59:55.359Z,9.20
2018-11-13T02:00:58.973Z,9.20
2018-11-13T02:02:02.775Z,9.20
2018-11-13T02:03:06.525Z,9.10
2018-11-13T02:04:10.546Z,9.10
2018-11-13T02:05:14.824Z,9.00
2018-11-13T02:06:18.441Z,9.00
2018-11-13T02:07:22.154Z,9.10
2018-11-13T02:08:25.680Z,9.10
2018-11-13T02:09:29.183Z,9.10
2018-11-13T02:10:32.699Z,9.10
2018-11-13T02:11:37.198Z,9.10
2018-11-13T02:12:40.841Z,9.10
2018-11-13T02:13:44.377Z,9.10
2018-11-13T02:14:47.924Z,9.10
2018-11-13T02:15:51.383Z,9.10
2018-11-13T02:16:54.913Z,9.10
2018-11-13T02:17:58.345Z,9.10
2018-11-13T02:19:01.847Z,9.10
2018-11-13T02:20:07.446Z,9.10
2018-11-13T02:21:11.878Z,9.10
2018-11-13T02:22:15.653Z,9.10
2018-11-13T02:23:19.268Z,9.20
2018-11-13T02:24:22.776Z,9.20
2018-11-13T02:25:26.306Z,9.20
2018-11-13T02:26:30.062Z,9.20
2018-11-13T02:27:33.695Z,9.20
2018-11-13T02:28:37.904Z,9.30
2018-11-13T02:29:41.941Z,9.20
2018-11-13T02:30:45.474Z,9.20
2018-11-13T02:31:49.082Z,9.20
2018-11-13T02:32:52.729Z,9.20
2018-11-13T02:33:56.361Z,9.30
2018-11-13T02:34:59.913Z,9.30
2018-11-13T02:36:03.494Z,9.30
2018-11-13T02:37:07.309Z,9.30
2018-11-13T02:38:11.127Z,9.20
2018-11-13T02:39:14.697Z,9.20
2018-11-13T02:40:18.333Z,9.20
2018-11-13T02:41:21.974Z,9.30
2018-11-13T02:42:25.764Z,9.30
2018-11-13T02:43:29.323Z,9.30
2018-11-13T02:44:32.817Z,9.30
2018-11-13T02:45:36.397Z,9.20
2018-11-13T02:46:40.129Z,9.20
2018-11-13T02:47:43.688Z,9.10
2018-11-13T02:48:47.522Z,9.10
2018-11-13T02:49:51.015Z,9.10
2018-11-13T02:50:54.493Z,9.00
2018-11-13T02:51:58.072Z,9.00
2018-11-13T02:53:01.631Z,9.00
2018-11-13T02:54:05.367Z,9.00
2018-11-13T02:55:10.124Z,9.00
2018-11-13T02:56:13.779Z,9.00
2018-11-13T02:57:17.456Z,9.10
2018-11-13T02:58:20.895Z,9.10
2018-11-13T02:59:24.679Z,9.20
2018-11-13T03:00:28.360Z,9.20
2018-11-13T03:01:32.063Z,9.20
2018-11-13T03:02:35.526Z,9.20
2018-11-13T03:03:39.212Z,9.20
2018-11-13T03:04:42.907Z,9.20
2018-11-13T03:05:46.379Z,9.20
2018-11-13T03:06:49.951Z,9.20
2018-11-13T03:07:53.477Z,9.20
2018-11-13T03:08:57.100Z,9.20
2018-11-13T03:10:00.541Z,9.10
2018-11-13T03:11:04.083Z,9.10
2018-11-13T03:12:07.822Z,9.10
2018-11-13T03:13:11.592Z,9.10
2018-11-13T03:14:15.310Z,9.10
2018-11-13T03:15:19.927Z,9.00
2018-11-13T03:16:24.224Z,9.00
2018-11-13T03:17:28.395Z,9.00
2018-11-13T03:18:31.881Z,8.90
2018-11-13T03:19:35.624Z,8.90
2018-11-13T03:20:39.403Z,8.90
2018-11-13T03:21:42.988Z,8.90
2018-11-13T03:22:47.887Z,8.90
2018-11-13T03:23:51.352Z,8.80
2018-11-13T03:24:54.888Z,8.90
2018-11-13T03:25:58.446Z,8.80
2018-11-13T03:27:01.896Z,8.80
2018-11-13T03:28:05.412Z,8.80
2018-11-13T03:29:08.927Z,8.70
2018-11-13T03:30:18.737Z,8.70
2018-11-13T03:31:22.440Z,8.70
2018-11-13T03:32:25.893Z,8.80
2018-11-13T03:33:29.469Z,8.70
2018-11-13T03:34:33.008Z,8.70
2018-11-13T03:35:37.624Z,8.70
2018-11-13T03:36:41.257Z,8.70
2018-11-13T03:37:45.063Z,8.70
2018-11-13T03:38:48.793Z,8.70
2018-11-13T03:39:52.365Z,8.70
2018-11-13T03:40:55.898Z,8.70
2018-11-13T03:41:59.449Z,8.70
2018-11-13T03:43:03.002Z,8.80
2018-11-13T03:44:07.725Z,8.80
2018-11-13T03:45:12.268Z,8.80
2018-11-13T03:46:16.020Z,8.80
2018-11-13T03:47:19.692Z,8.80
2018-11-13T03:48:23.186Z,8.80
2018-11-13T03:49:26.673Z,8.90
2018-11-13T03:50:30.308Z,8.90
2018-11-13T03:51:33.817Z,8.90
2018-11-13T03:52:37.453Z,8.90
2018-11-13T03:53:40.968Z,9.00
2018-11-13T03:54:44.464Z,9.00
2018-11-13T03:55:48.147Z,9.00
2018-11-13T03:56:51.732Z,9.00
2018-11-13T03:57:55.340Z,8.90
2018-11-13T03:58:59.148Z,8.90
2018-11-13T04:00:02.926Z,8.80
2018-11-13T04:01:06.605Z,8.80
2018-11-13T04:02:10.125Z,8.80
2018-11-13T04:03:13.612Z,8.70
2018-11-13T04:04:17.172Z,8.70
2018-11-13T04:05:22.172Z,8.70
2018-11-13T04:06:26.582Z,8.70
2018-11-13T04:07:30.131Z,8.70
2018-11-13T04:08:33.964Z,8.70
2018-11-13T04:09:37.675Z,8.80
2018-11-13T04:10:41.165Z,8.70
2018-11-13T04:11:44.848Z,8.70
2018-11-13T04:12:48.713Z,8.80
2018-11-13T04:13:52.255Z,8.80
2018-11-13T04:14:55.777Z,8.80
2018-11-13T04:15:59.321Z,8.90
2018-11-13T04:17:02.881Z,9.00
2018-11-13T04:18:06.702Z,9.00
2018-11-13T04:19:10.236Z,9.00
2018-11-13T04:20:16.074Z,9.00
2018-11-13T04:21:19.728Z,9.00
2018-11-13T04:22:23.214Z,9.10
2018-11-13T04:23:26.742Z,9.10
2018-11-13T04:24:30.403Z,9.20
2018-11-13T04:25:33.906Z,9.10
2018-11-13T04:26:37.389Z,9.10
2018-11-13T04:27:41.183Z,9.10
2018-11-13T04:28:44.657Z,9.10
2018-11-13T04:29:48.098Z,9.20
2018-11-13T04:30:51.840Z,9.10
2018-11-13T04:31:55.322Z,9.10
2018-11-13T04:32:58.817Z,9.10
2018-11-13T04:34:02.397Z,9.20
2018-11-13T04:35:07.305Z,9.20
2018-11-13T04:36:12.084Z,9.20
2018-11-13T04:37:15.616Z,9.20
2018-11-13T04:38:19.151Z,9.20
2018-11-13T04:39:22.696Z,9.20
2018-11-13T04:40:26.213Z,9.20
2018-11-13T04:41:29.758Z,9.20
2018-11-13T04:42:33.952Z,9.20
2018-11-13T04:43:37.533Z,9.20
2018-11-13T04:44:41.037Z,9.30
2018-11-13T04:45:44.714Z,9.20
2018-11-13T04:46:48.624Z,9.30
2018-11-13T04:47:52.299Z,9.20
2018-11-13T04:48:55.781Z,9.20
2018-11-13T04:49:59.303Z,9.30
2018-11-13T04:51:02.779Z,9.30
2018-11-13T04:52:06.495Z,9.30
2018-11-13T04:53:10.069Z,9.30
2018-11-13T04:54:13.517Z,9.30
2018-11-13T04:55:17.410Z,9.30
2018-11-13T04:56:21.411Z,9.30
2018-11-13T04:57:24.850Z,9.30
2018-11-13T04:58:28.411Z,9.20
2018-11-13T04:59:31.933Z,9.20
2018-11-13T05:00:36.301Z,9.20
2018-11-13T05:01:40.081Z,9.20
2018-11-13T05:02:44.416Z,9.20
2018-11-13T05:03:47.940Z,9.10
2018-11-13T05:04:51.452Z,9.10
2018-11-13T05:05:54.936Z,9.10
2018-11-13T05:06:58.749Z,9.00
2018-11-13T05:08:02.300Z,9.00
2018-11-13T05:09:07.786Z,9.10
2018-11-13T05:10:12.485Z,9.00
2018-11-13T05:11:16.803Z,9.10
2018-11-13T05:12:20.345Z,9.00
2018-11-13T05:13:23.806Z,9.00
2018-11-13T05:14:27.376Z,9.10
2018-11-13T05:15:30.855Z,9.10
2018-11-13T05:16:34.346Z,9.10
2018-11-13T05:17:38.318Z,9.20
2018-11-13T05:18:41.767Z,9.20
2018-11-13T05:19:45.330Z,9.20
2018-11-13T05:20:48.975Z,9.20
2018-11-13T05:21:52.586Z,9.20
2018-11-13T05:22:56.410Z,9.30
2018-11-13T05:23:59.968Z,9.30
2018-11-13T05:25:04.541Z,9.30
2018-11-13T05:26:08.180Z,9.30
2018-11-13T05:27:11.781Z,9.30
2018-11-13T05:28:15.384Z,9.30
2018-11-13T05:29:19.472Z,9.40
2018-11-13T05:30:23.365Z,9.40
2018-11-13T05:31:26.874Z,9.40
2018-11-13T05:32:30.448Z,9.40
2018-11-13T05:33:33.969Z,9.40
2018-11-13T05:34:37.575Z,9.40
2018-11-13T05:35:41.907Z,9.50
2018-11-13T05:36:45.633Z,9.50
2018-11-13T05:37:49.510Z,9.60
2018-11-13T05:38:53.010Z,9.60
2018-11-13T05:39:57.396Z,9.60
2018-11-13T05:41:00.883Z,9.60
2018-11-13T05:42:04.952Z,9.60
2018-11-13T05:43:08.511Z,9.60
2018-11-13T05:44:12.094Z,9.70
2018-11-13T05:45:16.900Z,9.70
2018-11-13T05:46:20.484Z,9.70
2018-11-13T05:47:24.169Z,9.70
2018-11-13T05:48:27.614Z,9.60
2018-11-13T05:49:31.134Z,9.60
2018-11-13T05:50:35.177Z,9.60
2018-11-13T05:51:38.935Z,9.60
2018-11-13T05:52:43.486Z,9.60
2018-11-13T05:53:47.181Z,9.60
2018-11-13T05:54:50.879Z,9.50
2018-11-13T05:55:54.699Z,9.50
2018-11-13T05:56:58.281Z,9.60
2018-11-13T05:58:01.906Z,9.50
2018-11-13T05:59:05.833Z,9.50
2018-11-13T06:00:11.319Z,9.50
2018-11-13T06:01:14.793Z,9.40
2018-11-13T06:02:18.450Z,9.40
2018-11-13T06:03:21.945Z,9.40
2018-11-13T06:04:25.558Z,9.40
2018-11-13T06:05:29.157Z,9.40
2018-11-13T06:06:32.671Z,9.40
2018-11-13T06:07:36.440Z,9.30
2018-11-13T06:08:39.996Z,9.30
2018-11-13T06:09:43.463Z,9.30
2018-11-13T06:10:47.595Z,9.20
2018-11-13T06:11:51.073Z,9.20
2018-11-13T06:12:54.796Z,9.20
2018-11-13T06:13:58.402Z,9.20
2018-11-13T06:15:02.050Z,9.20
2018-11-13T06:16:05.899Z,9.10
2018-11-13T06:17:10.138Z,9.10
2018-11-13T06:18:13.735Z,9.10
2018-11-13T06:19:17.348Z,9.10
2018-11-13T06:20:20.803Z,9.00
2018-11-13T06:21:24.916Z,9.00
2018-11-13T06:22:28.416Z,9.00
2018-11-13T06:23:31.924Z,8.90
2018-11-13T06:24:35.909Z,8.90
2018-11-13T06:25:39.400Z,8.80
2018-11-13T06:26:42.949Z,8.80
2018-11-13T06:27:47.602Z,8.90
2018-11-13T06:28:51.500Z,8.90
2018-11-13T06:29:55.130Z,8.80
2018-11-13T06:30:58.803Z,8.90
2018-11-13T06:32:02.365Z,8.90
2018-11-13T06:33:06.200Z,8.80
2018-11-13T06:34:09.676Z,8.90
2018-11-13T06:35:13.327Z,8.90
2018-11-13T06:36:16.933Z,8.90
2018-11-13T06:37:20.514Z,8.80
2018-11-13T06:38:24.081Z,8.70
2018-11-13T06:39:27.590Z,8.70
2018-11-13T06:40:31.134Z,8.60
2018-11-13T06:41:34.603Z,8.60
2018-11-13T06:42:38.856Z,8.50
2018-11-13T06:43:42.441Z,8.60
2018-11-13T06:44:45.969Z,8.60
2018-11-13T06:45:49.556Z,8.60
2018-11-13T06:46:53.310Z,8.60
2018-11-13T06:47:56.873Z,8.70
2018-11-13T06:49:00.513Z,8.70
2018-11-13T06:50:04.356Z,8.70
2018-11-13T06:51:08.677Z,8.70
2018-11-13T06:52:12.389Z,8.80
2018-11-13T06:53:16.521Z,8.80
2018-11-13T06:54:31.405Z,8.80
2018-11-13T06:55:36.061Z,8.70
2018-11-13T06:56:39.573Z,8.70
2018-11-13T06:57:43.212Z,8.50
2018-11-13T06:58:46.712Z,8.70
2018-11-13T06:59:50.201Z,8.60
2018-11-13T07:00:53.891Z,8.50
2018-11-13T07:01:57.739Z,8.50
2018-11-13T07:03:01.422Z,8.50
2018-11-13T07:04:04.916Z,8.50
2018-11-13T07:05:14.222Z,8.50
2018-11-13T07:06:18.811Z,8.40
2018-11-13T07:07:22.305Z,8.40
2018-11-13T07:08:25.869Z,8.40
2018-11-13T07:09:29.438Z,8.40
2018-11-13T07:10:32.966Z,8.40
2018-11-13T07:11:36.495Z,8.40
2018-11-13T07:12:41.226Z,8.40
2018-11-13T07:13:44.796Z,8.30
2018-11-13T07:14:48.506Z,8.30
2018-11-13T07:15:52.047Z,8.30
2018-11-13T07:16:55.521Z,8.30
2018-11-13T07:18:00.712Z,8.20
2018-11-13T07:19:05.134Z,8.20
2018-11-13T07:20:08.861Z,8.10
2018-11-13T07:21:12.598Z,8.10
2018-11-13T07:22:16.881Z,8.00
2018-11-13T07:23:20.489Z,8.00
2018-11-13T07:24:24.172Z,8.00
2018-11-13T07:25:27.769Z,8.00
2018-11-13T07:26:31.589Z,8.00
2018-11-13T07:27:35.426Z,8.10
2018-11-13T07:28:38.867Z,8.20
2018-11-13T07:29:42.427Z,8.20
2018-11-13T07:30:45.968Z,8.30
2018-11-13T07:31:49.446Z,8.40
2018-11-13T07:32:53.312Z,8.50
2018-11-13T07:33:56.776Z,8.60
2018-11-13T07:35:00.307Z,8.70
2018-11-13T07:36:04.144Z,8.80
2018-11-13T07:37:07.649Z,9.00
2018-11-13T07:38:11.433Z,9.00
2018-11-13T07:39:14.965Z,9.10
2018-11-13T07:40:18.899Z,9.10
2018-11-13T07:41:22.755Z,9.20
2018-11-13T07:42:26.353Z,9.30
2018-11-13T07:43:29.918Z,9.40
2018-11-13T07:44:33.591Z,9.50
2018-11-13T07:45:37.156Z,9.60
2018-11-13T07:46:40.804Z,9.70
2018-11-13T07:47:45.601Z,9.80
2018-11-13T07:48:48.907Z,9.80
2018-11-13T07:49:52.502Z,9.90
2018-11-13T07:50:56.034Z,10.00
2018-11-13T07:52:00.104Z,10.10
2018-11-13T07:53:04.580Z,10.20
2018-11-13T07:54:08.281Z,10.20
2018-11-13T07:55:13.007Z,10.30
2018-11-13T07:56:16.794Z,10.40
2018-11-13T07:57:20.316Z,10.40
2018-11-13T07:58:23.974Z,10.50
2018-11-13T07:59:27.567Z,10.50
2018-11-13T08:00:31.565Z,10.50
2018-11-13T08:01:36.199Z,10.50
2018-11-13T08:02:40.875Z,10.60
2018-11-13T08:03:44.467Z,10.60
2018-11-13T08:04:48.158Z,10.70
2018-11-13T08:05:51.938Z,10.70
2018-11-13T08:06:55.577Z,10.80
2018-11-13T08:07:59.715Z,10.80
2018-11-13T08:09:03.316Z,10.90
2018-11-13T08:10:08.614Z,11.00
2018-11-13T08:11:12.365Z,11.00
2018-11-13T08:12:16.875Z,11.00
2018-11-13T08:13:20.571Z,11.10
2018-11-13T08:14:25.034Z,11.10
2018-11-13T08:15:28.622Z,11.10
2018-11-13T08:16:32.262Z,11.10
2018-11-13T08:17:35.867Z,11.10
2018-11-13T08:18:39.651Z,11.10
2018-11-13T08:19:43.279Z,11.10
2018-11-13T08:20:46.883Z,11.10
2018-11-13T08:21:51.356Z,11.10
2018-11-13T08:22:55.223Z,11.20
2018-11-13T08:23:58.825Z,11.20
2018-11-13T08:25:02.330Z,11.20
2018-11-13T08:26:07.014Z,11.20
2018-11-13T08:27:10.551Z,11.20
2018-11-13T08:28:14.985Z,11.30
2018-11-13T08:29:19.101Z,11.30
2018-11-13T08:30:22.736Z,11.40
2018-11-13T08:31:26.362Z,11.50
2018-11-13T08:32:30.531Z,11.50
2018-11-13T08:33:34.200Z,11.60
2018-11-13T08:34:37.947Z,11.60
2018-11-13T08:35:41.575Z,11.70
2018-11-13T08:36:46.362Z,11.70
2018-11-13T08:37:49.957Z,11.60
2018-11-13T08:38:53.784Z,11.70
2018-11-13T08:39:57.997Z,11.70
2018-11-13T08:41:02.016Z,11.80
2018-11-13T08:42:06.026Z,11.80
2018-11-13T08:43:09.509Z,11.80
2018-11-13T08:44:13.318Z,11.80
2018-11-13T08:45:17.140Z,11.90
2018-11-13T08:46:21.706Z,11.90
2018-11-13T08:47:25.610Z,11.90
2018-11-13T08:48:29.169Z,11.90
2018-11-13T08:49:32.686Z,11.90
2018-11-13T08:50:37.248Z,12.00
2018-11-13T08:51:40.814Z,12.00
2018-11-13T08:52:45.244Z,12.10
2018-11-13T08:53:48.979Z,12.10
2018-11-13T08:54:52.654Z,12.20
2018-11-13T08:55:56.370Z,12.10
2018-11-13T08:56:59.967Z,12.10
2018-11-13T08:58:03.578Z,12.10
2018-11-13T08:59:08.164Z,12.10
2018-11-13T09:00:13.488Z,12.10
2018-11-13T09:01:17.103Z,12.00
2018-11-13T09:02:20.786Z,12.00
2018-11-13T09:03:24.356Z,12.00
2018-11-13T09:04:28.479Z,12.00
2018-11-13T09:05:32.053Z,12.00
2018-11-13T09:06:35.943Z,11.90
2018-11-13T09:07:40.395Z,11.90
2018-11-13T09:08:44.038Z,11.90
2018-11-13T09:09:47.632Z,11.90
2018-11-13T09:10:51.246Z,11.90
2018-11-13T09:11:54.886Z,11.90
2018-11-13T09:12:58.351Z,11.90
2018-11-13T09:14:03.539Z,11.90
2018-11-13T09:15:09.150Z,11.90
2018-11-13T09:16:12.901Z,11.90
2018-11-13T09:17:16.506Z,11.80
2018-11-13T09:18:20.082Z,11.80
2018-11-13T09:19:24.426Z,11.80
2018-11-13T09:20:28.340Z,11.80
2018-11-13T09:21:31.913Z,11.80
2018-11-13T09:22:35.689Z,11.80
2018-11-13T09:23:39.186Z,11.80
2018-11-13T09:24:42.779Z,11.70
2018-11-13T09:25:46.446Z,11.70
2018-11-13T09:26:50.609Z,11.70
2018-11-13T09:27:54.183Z,11.70
2018-11-13T09:28:57.939Z,11.80
2018-11-13T09:30:02.577Z,11.80
2018-11-13T09:31:06.192Z,11.80
2018-11-13T09:32:09.799Z,11.90
2018-11-13T09:33:14.151Z,11.90
2018-11-13T09:34:18.014Z,11.90
2018-11-13T09:35:22.280Z,11.90
2018-11-13T09:36:25.943Z,12.00
2018-11-13T09:37:29.516Z,12.00
2018-11-13T09:38:33.149Z,12.00
2018-11-13T09:39:36.774Z,12.00
2018-11-13T09:40:41.107Z,12.00
2018-11-13T09:41:44.656Z,12.10
2018-11-13T09:42:50.195Z,12.10
2018-11-13T09:43:53.874Z,12.20
2018-11-13T09:44:58.227Z,12.20
2018-11-13T09:46:01.858Z,12.30
2018-11-13T09:47:05.628Z,12.30
2018-11-13T09:48:09.265Z,12.30
2018-11-13T09:49:13.366Z,12.40
2018-11-13T09:50:18.671Z,12.50
2018-11-13T09:51:22.331Z,12.40
2018-11-13T09:52:27.145Z,12.50
2018-11-13T09:53:30.981Z,12.60
2018-11-13T09:54:34.518Z,12.60
2018-11-13T09:55:38.073Z,12.60
2018-11-13T09:56:42.147Z,12.60
2018-11-13T09:57:46.613Z,12.60
2018-11-13T09:58:50.717Z,12.60
2018-11-13T09:59:55.142Z,12.60
2018-11-13T10:00:58.700Z,12.60
2018-11-13T10:02:03.405Z,12.60
2018-11-13T10:03:07.131Z,12.60
2018-11-13T10:04:10.846Z,12.60
2018-11-13T10:05:14.765Z,12.50
2018-11-13T10:06:18.605Z,12.50
2018-11-13T10:07:22.345Z,12.50
2018-11-13T10:08:25.945Z,12.60
2018-11-13T10:09:29.632Z,12.70
2018-11-13T10:10:33.304Z,12.70
2018-11-13T10:11:36.886Z,12.90
2018-11-13T10:12:40.663Z,13.00
2018-11-13T10:13:44.326Z,13.10
2018-11-13T10:14:48.260Z,13.20
2018-11-13T10:15:52.540Z,13.30
2018-11-13T10:16:56.387Z,13.30
2018-11-13T10:18:00.921Z,13.30
2018-11-13T10:19:04.819Z,13.30
2018-11-13T10:20:09.713Z,13.30
2018-11-13T10:21:13.331Z,13.40
2018-11-13T10:22:17.744Z,13.50
2018-11-13T10:23:21.627Z,13.50
2018-11-13T10:24:26.077Z,13.50
2018-11-13T10:25:29.769Z,13.60
2018-11-13T10:26:33.489Z,13.50
2018-11-13T10:27:37.031Z,13.50
2018-11-13T10:28:41.052Z,13.50
2018-11-13T10:29:45.083Z,13.50
2018-11-13T10:30:48.949Z,13.50
2018-11-13T10:31:53.471Z,13.50
2018-11-13T10:32:57.101Z,13.50
2018-11-13T10:34:00.814Z,13.40
2018-11-13T10:35:04.755Z,13.30
2018-11-13T10:36:08.966Z,13.30
2018-11-13T10:37:13.385Z,13.30
2018-11-13T10:38:17.079Z,13.30
2018-11-13T10:39:20.853Z,13.30
2018-11-13T10:40:24.608Z,13.40
2018-11-13T10:41:28.099Z,13.40
2018-11-13T10:42:31.971Z,13.40
2018-11-13T10:43:35.747Z,13.40
2018-11-13T10:44:40.130Z,13.40
2018-11-13T10:45:44.539Z,13.40
2018-11-13T10:46:48.641Z,13.30
2018-11-13T10:47:52.982Z,13.40
2018-11-13T10:48:56.598Z,13.40
2018-11-13T10:50:00.523Z,13.40
2018-11-13T10:51:04.140Z,13.50
2018-11-13T10:52:08.048Z,13.50
2018-11-13T10:53:12.105Z,13.60
2018-11-13T10:54:15.900Z,13.70
2018-11-13T10:55:19.569Z,13.70
2018-11-13T10:56:23.221Z,13.80
2018-11-13T10:57:26.698Z,13.70
2018-11-13T10:58:30.882Z,13.80
2018-11-13T10:59:35.091Z,13.80
2018-11-13T11:00:44.083Z,13.80
2018-11-13T11:01:53.051Z,14.00
2018-11-13T11:03:02.521Z,14.10
2018-11-13T11:04:11.384Z,14.20
2018-11-13T11:05:15.739Z,14.30
2018-11-13T11:06:19.314Z,14.30
2018-11-13T11:07:22.940Z,14.30
2018-11-13T11:08:26.525Z,14.40
2018-11-13T11:09:30.233Z,14.40
2018-11-13T11:10:33.757Z,14.40
2018-11-13T11:11:37.790Z,14.40
2018-11-13T11:12:41.781Z,14.40
2018-11-13T11:13:45.529Z,14.40
2018-11-13T11:14:48.935Z,14.30
2018-11-13T11:15:53.846Z,14.20
2018-11-13T11:16:58.704Z,14.10
2018-11-13T11:18:02.325Z,14.00
2018-11-13T11:19:06.069Z,13.90
2018-11-13T11:20:11.295Z,13.80
2018-11-13T11:21:15.088Z,13.70
2018-11-13T11:22:18.610Z,13.60
2018-11-13T11:23:22.352Z,13.60
2018-11-13T11:24:26.055Z,13.60
2018-11-13T11:25:29.850Z,13.60
2018-11-13T11:26:33.543Z,13.50
2018-11-13T11:27:37.249Z,13.50
2018-11-13T11:28:40.786Z,13.40
2018-11-13T11:29:45.390Z,13.30
2018-11-13T11:30:48.944Z,13.30
2018-11-13T11:31:52.858Z,13.30
2018-11-13T11:32:56.409Z,13.20
2018-11-13T11:34:00.153Z,13.10
2018-11-13T11:35:03.826Z,13.10
2018-11-13T11:36:07.495Z,13.00
2018-11-13T11:37:11.133Z,13.00
2018-11-13T11:38:14.834Z,12.80
2018-11-13T11:39:18.490Z,12.80
2018-11-13T11:40:22.113Z,12.60
2018-11-13T11:41:25.882Z,12.60
2018-11-13T11:42:29.558Z,12.50
2018-11-13T11:43:33.139Z,12.30
2018-11-13T11:44:36.820Z,12.30
2018-11-13T11:45:41.436Z,12.20
2018-11-13T11:46:45.724Z,12.20
2018-11-13T11:47:49.200Z,12.10
2018-11-13T11:48:53.662Z,12.00
2018-11-13T11:49:57.535Z,12.00
2018-11-13T11:51:01.344Z,12.00
2018-11-13T11:52:05.307Z,11.90
2018-11-13T11:53:09.074Z,11.90
2018-11-13T11:54:12.638Z,11.80
2018-11-13T11:55:17.053Z,11.80
2018-11-13T11:56:21.409Z,11.70
2018-11-13T11:57:25.042Z,11.60
2018-11-13T11:58:28.607Z,11.60
2018-11-13T11:59:32.144Z,11.70
2018-11-13T12:00:36.149Z,11.60
2018-11-13T12:01:40.356Z,11.60
2018-11-13T12:02:44.466Z,11.60
2018-11-13T12:03:48.006Z,11.60
2018-11-13T12:04:51.634Z,11.70
2018-11-13T12:05:56.019Z,11.70
2018-11-13T12:06:59.712Z,11.70
2018-11-13T12:08:03.530Z,11.70
2018-11-13T12:09:09.872Z,11.60
2018-11-13T12:10:14.640Z,11.60
2018-11-13T12:11:18.191Z,11.60
2018-11-13T12:12:21.967Z,11.70
2018-11-13T12:13:25.975Z,11.60
2018-11-13T12:14:29.962Z,11.60
2018-11-13T12:15:33.530Z,11.70
2018-11-13T12:16:37.924Z,11.60
2018-11-13T12:17:42.119Z,11.60
2018-11-13T12:18:45.718Z,11.60
2018-11-13T12:19:49.858Z,11.50
2018-11-13T12:20:53.364Z,11.50
2018-11-13T12:21:57.054Z,11.50
2018-11-13T12:23:00.631Z,11.50
2018-11-13T12:24:04.867Z,11.50
2018-11-13T12:25:10.849Z,11.50
2018-11-13T12:26:14.452Z,11.50
2018-11-13T12:27:18.033Z,11.50
2018-11-13T12:28:21.652Z,11.50
2018-11-13T12:29:25.257Z,11.60
2018-11-13T12:30:28.928Z,11.60
2018-11-13T12:31:33.092Z,11.60
2018-11-13T12:32:36.715Z,11.60
2018-11-13T12:33:40.322Z,11.60
2018-11-13T12:34:44.506Z,11.70
2018-11-13T12:35:48.100Z,11.80
2018-11-13T12:36:52.299Z,11.80
2018-11-13T12:37:55.912Z,12.00
2018-11-13T12:38:59.533Z,12.00
2018-11-13T12:40:03.121Z,12.20
2018-11-13T12:41:06.721Z,12.30
2018-11-13T12:42:10.574Z,12.40
2018-11-13T12:43:14.710Z,12.50
2018-11-13T12:44:18.353Z,12.70
2018-11-13T12:45:22.163Z,12.70
2018-11-13T12:46:25.804Z,12.80
2018-11-13T12:47:29.984Z,12.90
2018-11-13T12:48:33.832Z,13.00
2018-11-13T12:49:37.271Z,13.00
2018-11-13T12:50:46.174Z,13.00
2018-11-13T12:51:55.133Z,13.00
2018-11-13T12:52:58.732Z,13.00
2018-11-13T12:54:02.518Z,13.10
2018-11-13T12:55:08.952Z,13.20
2018-11-13T12:56:12.632Z,13.20
2018-11-13T12:57:16.596Z,13.20
2018-11-13T12:58:20.843Z,13.20
2018-11-13T12:59:24.654Z,13.30
2018-11-13T13:00:28.912Z,13.20
2018-11-13T13:01:32.549Z,13.30
2018-11-13T13:02:36.180Z,13.20
2018-11-13T13:03:39.838Z,13.30
2018-11-13T13:04:43.471Z,13.40
2018-11-13T13:05:47.090Z,13.40
2018-11-13T13:06:50.757Z,13.40
2018-11-13T13:07:54.355Z,13.40
2018-11-13T13:08:58.061Z,13.40
2018-11-13T13:10:01.653Z,13.50
2018-11-13T13:11:06.410Z,13.50
2018-11-13T13:12:10.490Z,13.40
2018-11-13T13:13:13.975Z,13.50
2018-11-13T13:14:18.305Z,13.60
2018-11-13T13:15:22.021Z,13.60
2018-11-13T13:16:25.519Z,13.70
2018-11-13T13:17:29.062Z,13.70
2018-11-13T13:18:32.815Z,13.70
2018-11-13T13:19:36.386Z,13.90
2018-11-13T13:20:40.075Z,13.90
2018-11-13T13:21:43.705Z,14.00
2018-11-13T13:22:48.488Z,14.00
2018-11-13T13:23:52.109Z,14.00
2018-11-13T13:24:55.645Z,13.90
2018-11-13T13:25:59.453Z,13.90
2018-11-13T13:27:03.176Z,14.00
2018-11-13T13:28:07.134Z,14.00
2018-11-13T13:29:10.951Z,14.00
2018-11-13T13:30:19.889Z,14.00
2018-11-13T13:31:23.650Z,14.10
2018-11-13T13:32:27.381Z,14.00
2018-11-13T13:33:30.939Z,14.00
2018-11-13T13:34:34.885Z,14.10
2018-11-13T13:35:50.044Z,14.10
2018-11-13T13:36:53.611Z,14.10
2018-11-13T13:37:57.154Z,14.10
2018-11-13T13:39:00.953Z,14.00
2018-11-13T13:40:05.416Z,14.00
2018-11-13T13:41:09.522Z,13.90
2018-11-13T13:42:13.703Z,13.90
2018-11-13T13:43:17.896Z,13.80
2018-11-13T13:44:21.560Z,13.80
2018-11-13T13:45:25.135Z,13.70
2018-11-13T13:46:28.714Z,13.70
2018-11-13T13:47:32.319Z,13.70
2018-11-13T13:48:36.451Z,13.60
2018-11-13T13:49:40.851Z,13.60
2018-11-13T13:50:44.432Z,13.60
2018-11-13T13:51:47.949Z,13.50
2018-11-13T13:52:51.641Z,13.50
2018-11-13T13:53:55.990Z,13.50
2018-11-13T13:54:59.482Z,13.40
2018-11-13T13:56:03.880Z,13.40
2018-11-13T13:57:08.275Z,13.30
2018-11-13T13:58:15.619Z,13.30